createdAt,value
2017-08-26T00:01:16.800Z,64.40
2017-08-26T00:03:43.252Z,64.40
2017-08-26T00:06:09.693Z,64.20
2017-08-26T00:08:36.225Z,63.90
2017-08-26T00:11:03.449Z,63.80
2017-08-26T00:13:29.882Z,63.60
2017-08-26T00:15:56.304Z,63.60
2017-08-26T00:18:22.806Z,63.60
2017-08-26T00:20:49.374Z,63.70
2017-08-26T00:23:15.825Z,63.50
2017-08-26T00:25:42.297Z,63.40
2017-08-26T00:28:08.836Z,63.40
2017-08-26T00:30:35.275Z,63.30
2017-08-26T00:33:01.814Z,63.40
2017-08-26T00:35:28.257Z,63.30
2017-08-26T00:37:54.770Z,63.30
2017-08-26T00:40:21.285Z,63.10
2017-08-26T00:42:47.778Z,63.40
2017-08-26T00:45:14.306Z,63.30
2017-08-26T00:47:40.799Z,63.30
2017-08-26T00:50:07.328Z,63.20
2017-08-26T00:52:33.816Z,63.30
2017-08-26T00:55:00.347Z,63.30
2017-08-26T00:57:26.920Z,63.20
2017-08-26T00:59:53.433Z,63.20
2017-08-26T01:02:19.917Z,63.10
2017-08-26T01:04:46.411Z,62.90
2017-08-26T01:07:18.981Z,63.10
2017-08-26T01:09:45.478Z,62.80
2017-08-26T01:12:11.957Z,63.40
2017-08-26T01:14:38.411Z,63.20
2017-08-26T01:17:04.945Z,63.20
2017-08-26T01:19:31.491Z,63.40
2017-08-26T01:21:58.009Z,63.20
2017-08-26T01:24:24.511Z,63.20
2017-08-26T01:26:50.998Z,63.10
2017-08-26T01:29:17.549Z,63.40
2017-08-26T01:31:44.036Z,63.70
2017-08-26T01:34:10.541Z,64.10
2017-08-26T01:36:36.986Z,64.40
2017-08-26T01:39:03.615Z,64.50
2017-08-26T01:41:30.217Z,64.40
2017-08-26T01:43:56.673Z,64.30
2017-08-26T01:46:23.142Z,64.00
2017-08-26T01:48:49.613Z,63.90
2017-08-26T01:51:16.140Z,64.10
2017-08-26T01:53:42.611Z,64.30
2017-08-26T01:56:09.141Z,64.60
2017-08-26T01:58:35.631Z,65.00
2017-08-26T02:01:02.086Z,65.40
2017-08-26T02:03:28.549Z,65.70
2017-08-26T02:05:55.129Z,65.80
2017-08-26T02:08:21.609Z,66.30
2017-08-26T02:10:48.118Z,66.50
2017-08-26T02:13:14.561Z,66.50
2017-08-26T02:15:41.128Z,66.50
2017-08-26T02:18:07.680Z,66.40
2017-08-26T02:20:34.175Z,66.40
2017-08-26T02:23:00.685Z,66.50
2017-08-26T02:25:27.138Z,66.40
2017-08-26T02:27:53.642Z,66.40
2017-08-26T02:30:20.119Z,66.60
2017-08-26T02:32:46.613Z,66.70
2017-08-26T02:35:13.145Z,66.60
2017-08-26T02:37:39.656Z,66.70
2017-08-26T02:40:06.238Z,66.70
2017-08-26T02:42:32.676Z,66.80
2017-08-26T02:44:59.149Z,66.80
2017-08-26T02:47:25.609Z,66.70
2017-08-26T02:49:52.058Z,67.00
2017-08-26T02:52:18.533Z,67.20
2017-08-26T02:54:44.970Z,67.50
2017-08-26T02:57:11.453Z,66.70
2017-08-26T02:59:37.909Z,67.30
2017-08-26T03:02:04.389Z,67.70
2017-08-26T03:04:30.808Z,67.80
2017-08-26T03:06:57.376Z,67.30
2017-08-26T03:09:23.831Z,67.30
2017-08-26T03:11:50.307Z,67.00
2017-08-26T03:14:16.753Z,66.80
2017-08-26T03:16:43.293Z,66.60
2017-08-26T03:19:09.745Z,66.60
2017-08-26T03:21:36.215Z,66.30
2017-08-26T03:24:02.678Z,66.20
2017-08-26T03:26:29.193Z,66.50
2017-08-26T03:28:55.670Z,66.10
2017-08-26T03:31:22.193Z,65.70
2017-08-26T03:33:48.679Z,66.40
2017-08-26T03:36:15.217Z,66.40
2017-08-26T03:38:41.656Z,66.30
2017-08-26T03:41:08.093Z,66.20
2017-08-26T03:43:34.580Z,65.70
2017-08-26T03:46:01.031Z,65.90
2017-08-26T03:48:27.490Z,66.00
2017-08-26T03:50:53.961Z,65.60
2017-08-26T03:53:20.476Z,65.60
2017-08-26T03:55:47.027Z,66.10
2017-08-26T03:58:13.592Z,66.30
2017-08-26T04:00:40.040Z,66.10
2017-08-26T04:03:06.542Z,66.40
2017-08-26T04:05:33.036Z,66.50
2017-08-26T04:07:59.513Z,66.20
2017-08-26T04:10:25.956Z,66.00
2017-08-26T04:12:52.426Z,66.30
2017-08-26T04:15:18.903Z,66.60
2017-08-26T04:17:45.334Z,66.60
2017-08-26T04:20:11.757Z,67.10
2017-08-26T04:22:38.212Z,66.80
2017-08-26T04:25:04.674Z,66.80
2017-08-26T04:27:31.111Z,66.70
2017-08-26T04:29:57.575Z,66.70
2017-08-26T04:32:24.040Z,67.10
2017-08-26T04:34:50.486Z,66.80
2017-08-26T04:37:16.944Z,66.60
2017-08-26T04:39:43.444Z,66.30
2017-08-26T04:42:09.856Z,66.10
2017-08-26T04:44:36.297Z,66.20
2017-08-26T04:47:02.821Z,66.30
2017-08-26T04:49:29.274Z,66.40
2017-08-26T04:51:55.789Z,66.40
2017-08-26T04:54:22.260Z,67.00
2017-08-26T04:56:48.684Z,66.70
2017-08-26T04:59:15.265Z,66.30
2017-08-26T05:01:41.675Z,66.50
2017-08-26T05:04:08.082Z,66.90
2017-08-26T05:06:34.622Z,67.30
2017-08-26T05:09:01.040Z,67.70
2017-08-26T05:11:27.673Z,67.20
2017-08-26T05:13:54.150Z,67.40
2017-08-26T05:16:20.581Z,68.30
2017-08-26T05:18:47.116Z,68.40
2017-08-26T05:21:13.570Z,68.00
2017-08-26T05:23:40.008Z,68.20
2017-08-26T05:26:06.467Z,68.20
2017-08-26T05:28:32.921Z,67.60
2017-08-26T05:30:59.441Z,67.30
2017-08-26T05:33:25.899Z,66.60
2017-08-26T05:35:52.861Z,66.30
2017-08-26T05:38:21.824Z,65.70
2017-08-26T05:40:48.425Z,65.10
2017-08-26T05:43:14.971Z,65.10
2017-08-26T05:45:41.438Z,64.20
2017-08-26T05:48:07.914Z,63.60
2017-08-26T05:50:34.377Z,62.90
2017-08-26T05:53:00.809Z,62.50
2017-08-26T05:55:27.283Z,60.70
2017-08-26T05:57:53.734Z,60.70
2017-08-26T06:00:20.262Z,60.30
2017-08-26T06:02:46.767Z,59.90
2017-08-26T06:05:13.225Z,59.50
2017-08-26T06:07:39.806Z,58.80
2017-08-26T06:10:06.280Z,58.60
2017-08-26T06:12:32.712Z,58.10
2017-08-26T06:14:59.177Z,57.60
2017-08-26T06:17:25.657Z,57.50
2017-08-26T06:19:52.941Z,56.80
2017-08-26T06:22:19.532Z,56.60
2017-08-26T06:24:45.999Z,56.10
2017-08-26T06:27:12.545Z,55.90
2017-08-26T06:29:39.046Z,54.80
2017-08-26T06:32:06.018Z,54.60
2017-08-26T06:34:32.507Z,55.00
2017-08-26T06:36:58.957Z,54.50
2017-08-26T06:39:25.553Z,54.20
2017-08-26T06:41:51.986Z,54.10
2017-08-26T06:44:18.464Z,53.60
2017-08-26T06:46:44.919Z,53.20
2017-08-26T06:49:11.407Z,52.70
2017-08-26T06:51:37.865Z,52.50
2017-08-26T06:54:04.314Z,52.50
2017-08-26T06:56:30.810Z,53.00
2017-08-26T06:58:57.349Z,53.30
2017-08-26T07:01:23.798Z,52.10
2017-08-26T07:03:50.291Z,52.10
2017-08-26T07:06:16.756Z,51.60
2017-08-26T07:08:43.235Z,51.90
2017-08-26T07:11:09.711Z,51.10
2017-08-26T07:13:36.148Z,50.60
2017-08-26T07:16:02.655Z,50.80
2017-08-26T07:18:29.157Z,49.50
2017-08-26T07:20:55.650Z,50.40
2017-08-26T07:23:22.166Z,50.00
2017-08-26T07:25:48.609Z,48.80
2017-08-26T07:28:15.110Z,48.10
2017-08-26T07:30:41.549Z,47.20
2017-08-26T07:33:07.996Z,45.90
2017-08-26T07:35:34.466Z,44.70
2017-08-26T07:38:00.904Z,43.50
2017-08-26T07:40:27.463Z,44.30
2017-08-26T07:42:53.929Z,42.80
2017-08-26T07:45:20.470Z,42.00
2017-08-26T07:47:46.905Z,42.00
2017-08-26T07:50:13.476Z,41.60
2017-08-26T07:52:39.912Z,40.30
2017-08-26T07:55:06.394Z,39.50
2017-08-26T07:57:33.068Z,39.80
2017-08-26T07:59:59.784Z,40.20
2017-08-26T08:02:26.557Z,40.40
2017-08-26T08:04:53.064Z,39.50
2017-08-26T08:07:19.558Z,39.40
2017-08-26T08:09:46.020Z,39.20
2017-08-26T08:12:12.514Z,38.30
2017-08-26T08:14:38.961Z,37.70
2017-08-26T08:17:05.451Z,38.20
2017-08-26T08:19:32.236Z,37.70
2017-08-26T08:21:59.208Z,38.00
2017-08-26T08:24:25.683Z,37.20
2017-08-26T08:26:52.141Z,37.20
2017-08-26T08:29:18.628Z,37.00
2017-08-26T08:31:45.063Z,36.50
2017-08-26T08:34:11.507Z,35.70
2017-08-26T08:36:38.024Z,35.20
2017-08-26T08:39:04.495Z,34.80
2017-08-26T08:41:30.984Z,35.30
2017-08-26T08:43:57.495Z,35.30
2017-08-26T08:46:23.986Z,35.30
2017-08-26T08:48:50.454Z,34.60
2017-08-26T08:51:16.967Z,33.30
2017-08-26T08:53:43.444Z,33.70
2017-08-26T08:56:09.965Z,33.40
2017-08-26T08:58:36.457Z,32.40
2017-08-26T09:01:02.966Z,32.30
2017-08-26T09:03:29.513Z,32.70
2017-08-26T09:05:55.945Z,32.30
2017-08-26T09:08:22.405Z,32.00
2017-08-26T09:10:48.977Z,32.00
2017-08-26T09:13:15.510Z,31.90
2017-08-26T09:15:41.954Z,31.70
2017-08-26T09:18:08.402Z,31.90
2017-08-26T09:20:34.845Z,32.40
2017-08-26T09:23:01.445Z,32.40
2017-08-26T09:25:27.972Z,30.50
2017-08-26T09:27:54.502Z,30.00
2017-08-26T09:30:20.950Z,29.70
2017-08-26T09:32:47.483Z,30.00
2017-08-26T09:35:13.957Z,29.70
2017-08-26T09:37:40.453Z,30.00
2017-08-26T09:40:06.977Z,30.20
2017-08-26T09:42:33.473Z,29.60
2017-08-26T09:45:00.041Z,30.20
2017-08-26T09:47:26.497Z,30.00
2017-08-26T09:49:53.028Z,30.00
2017-08-26T09:52:19.495Z,29.60
2017-08-26T09:54:45.952Z,29.70
2017-08-26T09:57:12.476Z,29.90
2017-08-26T09:59:38.998Z,29.70
2017-08-26T10:02:05.553Z,29.40
2017-08-26T10:04:32.029Z,30.00
2017-08-26T10:06:58.486Z,29.60
2017-08-26T10:09:25.067Z,28.60
2017-08-26T10:11:51.607Z,29.10
2017-08-26T10:14:18.085Z,29.40
2017-08-26T10:16:44.561Z,29.30
2017-08-26T10:19:11.117Z,28.20
2017-08-26T10:21:37.561Z,27.70
2017-08-26T10:24:04.006Z,27.70
2017-08-26T10:26:30.505Z,27.30
2017-08-26T10:28:57.022Z,25.40
2017-08-26T10:31:23.539Z,25.90
2017-08-26T10:33:50.045Z,25.20
2017-08-26T10:36:17.346Z,24.10
2017-08-26T10:38:43.920Z,24.10
2017-08-26T10:41:10.450Z,23.70
2017-08-26T10:43:36.961Z,23.70
2017-08-26T10:46:03.519Z,24.20
2017-08-26T10:48:30.173Z,24.80
2017-08-26T10:50:56.792Z,24.70
2017-08-26T10:53:23.288Z,24.60
2017-08-26T10:55:49.811Z,23.90
2017-08-26T10:58:16.324Z,24.10
2017-08-26T11:00:42.813Z,23.80
2017-08-26T11:03:09.366Z,24.60
2017-08-26T11:05:35.818Z,24.30
2017-08-26T11:08:02.312Z,24.40
2017-08-26T11:10:28.830Z,24.40
2017-08-26T11:12:55.265Z,23.70
2017-08-26T11:15:21.773Z,23.80
2017-08-26T11:17:48.232Z,24.10
2017-08-26T11:20:14.737Z,24.30
2017-08-26T11:22:41.244Z,24.50
2017-08-26T11:25:07.721Z,25.00
2017-08-26T11:27:34.197Z,24.30
2017-08-26T11:30:00.691Z,24.40
2017-08-26T11:32:27.222Z,24.90
2017-08-26T11:34:53.671Z,24.70
2017-08-26T11:37:20.233Z,25.00
2017-08-26T11:39:46.750Z,25.40
2017-08-26T11:42:13.255Z,25.80
2017-08-26T11:44:39.729Z,25.70
2017-08-26T11:47:06.219Z,25.90
2017-08-26T11:49:32.746Z,25.60
2017-08-26T11:51:59.179Z,25.70
2017-08-26T11:54:25.735Z,25.50
2017-08-26T11:56:52.173Z,25.80
2017-08-26T11:59:18.629Z,26.30
2017-08-26T12:01:45.182Z,26.60
2017-08-26T12:04:11.636Z,26.00
2017-08-26T12:06:38.109Z,25.80
2017-08-26T12:09:04.665Z,26.00
2017-08-26T12:11:31.127Z,26.20
2017-08-26T12:13:57.597Z,26.50
2017-08-26T12:16:24.157Z,26.90
2017-08-26T12:18:50.600Z,25.50
2017-08-26T12:21:17.196Z,25.70
2017-08-26T12:23:43.670Z,26.30
2017-08-26T12:26:10.106Z,26.30
2017-08-26T12:28:36.598Z,26.00
2017-08-26T12:31:03.090Z,25.70
2017-08-26T12:33:29.524Z,25.20
2017-08-26T12:35:56.024Z,25.80
2017-08-26T12:38:22.484Z,26.10
2017-08-26T12:40:48.907Z,25.80
2017-08-26T12:43:15.410Z,26.10
2017-08-26T12:45:41.917Z,26.60
2017-08-26T12:48:08.326Z,26.40
2017-08-26T12:50:34.743Z,26.20
2017-08-26T12:53:01.162Z,26.40
2017-08-26T12:55:27.607Z,26.80
2017-08-26T12:57:53.997Z,26.50
2017-08-26T13:00:20.433Z,27.10
2017-08-26T13:02:46.870Z,27.00
2017-08-26T13:05:13.289Z,26.30
2017-08-26T13:07:39.715Z,26.60
2017-08-26T13:10:06.125Z,26.80
2017-08-26T13:12:32.644Z,26.30
2017-08-26T13:14:59.048Z,26.80
2017-08-26T13:17:25.505Z,26.80
2017-08-26T13:19:51.944Z,26.60
2017-08-26T13:22:18.356Z,26.70
2017-08-26T13:24:44.787Z,26.90
2017-08-26T13:27:11.177Z,27.00
2017-08-26T13:29:37.639Z,27.50
2017-08-26T13:32:04.050Z,27.50
2017-08-26T13:34:30.479Z,27.10
2017-08-26T13:36:56.887Z,27.60
2017-08-26T13:39:23.325Z,27.40
2017-08-26T13:41:49.730Z,27.60
2017-08-26T13:44:16.119Z,28.00
2017-08-26T13:46:42.601Z,28.20
2017-08-26T13:49:09.016Z,27.80
2017-08-26T13:51:35.472Z,28.20
2017-08-26T13:54:01.853Z,28.60
2017-08-26T13:56:28.287Z,28.10
2017-08-26T13:58:54.736Z,28.00
2017-08-26T14:01:21.174Z,27.90
2017-08-26T14:03:47.609Z,28.10
2017-08-26T14:06:14.029Z,28.00
2017-08-26T14:08:40.440Z,28.50
2017-08-26T14:11:06.885Z,27.70
2017-08-26T14:13:33.288Z,29.00
2017-08-26T14:15:59.690Z,28.30
2017-08-26T14:18:26.109Z,28.80
2017-08-26T14:20:52.514Z,29.00
2017-08-26T14:23:18.891Z,28.50
2017-08-26T14:25:45.323Z,29.00
2017-08-26T14:28:11.710Z,29.10
2017-08-26T14:30:38.138Z,28.50
2017-08-26T14:33:04.533Z,28.60
2017-08-26T14:35:30.981Z,29.00
2017-08-26T14:37:57.402Z,28.90
2017-08-26T14:40:23.847Z,29.50
2017-08-26T14:42:50.261Z,29.50
2017-08-26T14:45:16.851Z,29.80
2017-08-26T14:47:43.305Z,29.30
2017-08-26T14:50:09.780Z,29.70
2017-08-26T14:52:36.212Z,29.60
2017-08-26T14:55:02.672Z,29.80
2017-08-26T14:57:29.243Z,29.70
2017-08-26T14:59:55.681Z,30.50
2017-08-26T15:02:22.085Z,29.10
2017-08-26T15:04:48.593Z,29.40
2017-08-26T15:07:15.013Z,30.30
2017-08-26T15:09:41.401Z,29.50
2017-08-26T15:12:07.933Z,29.70
2017-08-26T15:14:34.356Z,30.00
2017-08-26T15:17:00.749Z,30.10
2017-08-26T15:19:27.244Z,30.10
2017-08-26T15:21:53.661Z,30.00
2017-08-26T15:24:20.093Z,30.20
2017-08-26T15:26:46.511Z,30.50
2017-08-26T15:29:12.986Z,30.80
2017-08-26T15:31:39.410Z,31.00
2017-08-26T15:34:05.824Z,31.40
2017-08-26T15:36:33.018Z,31.40
2017-08-26T15:38:59.475Z,31.40
2017-08-26T15:41:25.947Z,31.10
2017-08-26T15:43:52.346Z,31.80
2017-08-26T15:46:18.738Z,31.50
2017-08-26T15:48:45.147Z,32.70
2017-08-26T15:51:11.546Z,31.60
2017-08-26T15:53:37.978Z,31.80
2017-08-26T15:56:04.376Z,32.10
2017-08-26T15:58:30.769Z,31.90
2017-08-26T16:00:57.305Z,32.00
2017-08-26T16:03:23.688Z,32.70
2017-08-26T16:05:50.101Z,32.90
2017-08-26T16:08:16.478Z,32.60
2017-08-26T16:10:42.907Z,32.50
2017-08-26T16:13:09.393Z,33.30
2017-08-26T16:15:35.840Z,32.90
2017-08-26T16:18:02.248Z,32.70
2017-08-26T16:20:28.710Z,33.00
2017-08-26T16:22:55.129Z,33.50
2017-08-26T16:25:21.562Z,33.20
2017-08-26T16:27:47.983Z,33.00
2017-08-26T16:30:14.403Z,33.30
2017-08-26T16:32:40.866Z,33.10
2017-08-26T16:35:07.321Z,33.30
2017-08-26T16:37:33.714Z,33.30
2017-08-26T16:40:00.188Z,33.50
2017-08-26T16:42:26.621Z,33.60
2017-08-26T16:44:53.120Z,34.00
2017-08-26T16:47:19.583Z,33.90
2017-08-26T16:49:45.988Z,33.20
2017-08-26T16:52:12.441Z,33.40
2017-08-26T16:54:38.838Z,33.80
2017-08-26T16:57:05.276Z,34.10
2017-08-26T16:59:31.673Z,34.00
2017-08-26T17:01:58.089Z,34.00
2017-08-26T17:04:24.495Z,34.20
2017-08-26T17:06:50.890Z,34.30
2017-08-26T17:09:17.401Z,34.20
2017-08-26T17:11:43.794Z,34.80
2017-08-26T17:14:10.210Z,34.40
2017-08-26T17:16:36.629Z,34.50
2017-08-26T17:19:03.077Z,35.20
2017-08-26T17:21:29.501Z,34.60
2017-08-26T17:23:55.951Z,34.90
2017-08-26T17:26:22.337Z,35.00
2017-08-26T17:28:48.781Z,35.00
2017-08-26T17:31:15.218Z,35.10
2017-08-26T17:33:41.613Z,35.00
2017-08-26T17:36:08.031Z,35.30
2017-08-26T17:38:34.410Z,35.40
2017-08-26T17:41:00.817Z,35.40
2017-08-26T17:43:27.326Z,35.50
2017-08-26T17:45:53.736Z,35.60
2017-08-26T17:48:20.182Z,35.80
2017-08-26T17:50:46.626Z,35.80
2017-08-26T17:53:13.024Z,35.80
2017-08-26T17:55:40.166Z,35.90
2017-08-26T17:58:06.568Z,36.00
2017-08-26T18:00:33.036Z,36.40
2017-08-26T18:02:59.470Z,36.30
2017-08-26T18:05:25.889Z,36.50
2017-08-26T18:07:52.359Z,36.60
2017-08-26T18:10:18.742Z,37.00
2017-08-26T18:12:45.156Z,36.90
2017-08-26T18:15:11.590Z,37.20
2017-08-26T18:17:37.984Z,37.20
2017-08-26T18:20:04.390Z,37.30
2017-08-26T18:22:30.821Z,37.20
2017-08-26T18:24:57.366Z,37.70
2017-08-26T18:27:23.778Z,37.70
2017-08-26T18:29:50.190Z,38.00
2017-08-26T18:32:16.629Z,37.80
2017-08-26T18:34:43.032Z,38.00
2017-08-26T18:37:09.442Z,37.70
2017-08-26T18:39:35.905Z,38.30
2017-08-26T18:42:02.308Z,39.40
2017-08-26T18:44:28.771Z,39.80
2017-08-26T18:46:55.194Z,39.80
2017-08-26T18:49:21.588Z,40.50
2017-08-26T18:51:48.046Z,41.00
2017-08-26T18:54:14.437Z,41.30
2017-08-26T18:56:40.845Z,42.70
2017-08-26T18:59:07.282Z,43.10
2017-08-26T19:01:33.685Z,43.20
2017-08-26T19:04:00.104Z,43.70
2017-08-26T19:06:26.573Z,43.40
2017-08-26T19:08:52.975Z,43.30
2017-08-26T19:11:19.377Z,43.70
2017-08-26T19:13:45.841Z,44.00
2017-08-26T19:16:12.237Z,44.20
2017-08-26T19:18:38.660Z,44.50
2017-08-26T19:21:05.113Z,44.50
2017-08-26T19:23:31.594Z,44.30
2017-08-26T19:25:58.022Z,44.40
2017-08-26T19:28:24.460Z,45.00
2017-08-26T19:30:50.890Z,44.90
2017-08-26T19:33:17.394Z,45.00
2017-08-26T19:35:43.864Z,45.10
2017-08-26T19:38:10.355Z,45.20
2017-08-26T19:40:37.598Z,45.10
2017-08-26T19:43:04.081Z,45.00
2017-08-26T19:45:30.601Z,44.80
2017-08-26T19:47:57.067Z,45.10
2017-08-26T19:50:23.591Z,45.20
2017-08-26T19:52:50.044Z,45.00
2017-08-26T19:55:16.544Z,45.50
2017-08-26T19:57:42.966Z,45.10
2017-08-26T20:00:09.446Z,45.50
2017-08-26T20:02:35.986Z,45.60
2017-08-26T20:05:02.498Z,45.80
2017-08-26T20:07:28.998Z,45.90
2017-08-26T20:09:55.441Z,46.70
2017-08-26T20:12:21.897Z,46.10
2017-08-26T20:14:48.436Z,46.10
2017-08-26T20:17:14.913Z,46.50
2017-08-26T20:19:41.424Z,47.00
2017-08-26T20:22:08.733Z,47.40
2017-08-26T20:24:35.221Z,47.90
2017-08-26T20:27:01.613Z,47.80
2017-08-26T20:29:28.113Z,47.70
2017-08-26T20:31:54.548Z,47.60
2017-08-26T20:34:20.995Z,47.50
2017-08-26T20:36:47.506Z,47.40
2017-08-26T20:39:13.885Z,47.30
2017-08-26T20:41:40.346Z,47.30
2017-08-26T20:44:06.814Z,47.60
2017-08-26T20:46:34.052Z,47.90
2017-08-26T20:49:00.779Z,48.10
2017-08-26T20:51:27.265Z,48.00
2017-08-26T20:53:53.729Z,48.40
2017-08-26T20:56:20.186Z,49.30
2017-08-26T20:58:46.737Z,49.40
2017-08-26T21:01:13.362Z,49.80
2017-08-26T21:03:39.837Z,50.00
2017-08-26T21:06:06.337Z,50.20
2017-08-26T21:08:32.825Z,50.30
2017-08-26T21:10:59.287Z,50.50
2017-08-26T21:13:25.773Z,50.50
2017-08-26T21:15:52.244Z,50.50
2017-08-26T21:18:18.769Z,50.30
2017-08-26T21:20:45.209Z,50.40
2017-08-26T21:23:11.710Z,50.40
2017-08-26T21:25:38.193Z,50.60
2017-08-26T21:28:04.653Z,50.20
2017-08-26T21:30:31.230Z,50.50
2017-08-26T21:32:57.761Z,50.80
2017-08-26T21:35:24.230Z,50.60
2017-08-26T21:37:50.806Z,51.00
2017-08-26T21:40:17.229Z,51.10
2017-08-26T21:42:43.701Z,51.30
2017-08-26T21:45:10.174Z,51.50
2017-08-26T21:47:36.604Z,51.90
2017-08-26T21:50:03.385Z,52.10
2017-08-26T21:52:29.850Z,52.10
2017-08-26T21:54:56.311Z,52.70
2017-08-26T21:57:22.781Z,52.20
2017-08-26T21:59:49.324Z,52.40
2017-08-26T22:02:15.844Z,52.50
2017-08-26T22:04:42.345Z,52.50
2017-08-26T22:07:08.792Z,52.70
2017-08-26T22:09:35.317Z,52.80
2017-08-26T22:12:01.815Z,52.80
2017-08-26T22:14:28.315Z,52.70
2017-08-26T22:16:54.852Z,52.90
2017-08-26T22:19:21.305Z,53.00
2017-08-26T22:21:47.808Z,53.20
2017-08-26T22:24:14.279Z,53.30
2017-08-26T22:26:40.737Z,53.30
2017-08-26T22:29:07.208Z,53.30
2017-08-26T22:31:33.732Z,53.20
2017-08-26T22:34:00.164Z,53.10
2017-08-26T22:36:27.233Z,53.20
2017-08-26T22:38:53.982Z,53.30
2017-08-26T22:41:20.424Z,53.30
2017-08-26T22:43:46.956Z,53.50
2017-08-26T22:46:13.420Z,53.60
2017-08-26T22:48:39.997Z,53.80
2017-08-26T22:51:06.445Z,53.90
2017-08-26T22:53:32.925Z,54.00
2017-08-26T22:55:59.413Z,54.30
2017-08-26T22:58:25.834Z,54.30
2017-08-26T23:00:52.338Z,54.20
2017-08-26T23:03:18.861Z,54.30
2017-08-26T23:05:45.312Z,54.60
2017-08-26T23:08:11.793Z,54.60
2017-08-26T23:10:38.271Z,54.60
2017-08-26T23:13:04.721Z,54.60
2017-08-26T23:15:32.098Z,54.90
2017-08-26T23:17:58.624Z,55.10
2017-08-26T23:20:25.055Z,54.90
2017-08-26T23:22:51.544Z,54.90
2017-08-26T23:25:18.033Z,54.90
2017-08-26T23:27:44.481Z,54.80
2017-08-26T23:30:11.038Z,54.40
2017-08-26T23:32:37.490Z,54.00
2017-08-26T23:35:04.662Z,54.00
2017-08-26T23:37:31.115Z,54.00
2017-08-26T23:39:57.582Z,54.00
2017-08-26T23:42:24.002Z,54.10
2017-08-26T23:44:50.461Z,54.40
2017-08-26T23:47:17.617Z,54.90
2017-08-26T23:49:44.130Z,55.40
2017-08-26T23:52:11.193Z,55.70
2017-08-26T23:54:37.694Z,55.50
2017-08-26T23:57:04.206Z,55.40
2017-08-26T23:59:30.659Z,54.80
